Current Weather

Chicago Executive

Wheeling, Illinois (KPWK)

Report from: Wednesday, September 28, 2022 2:52 AM CDT
Current time: Wednesday, September 28, 2022 3:41 AM CDT

Nearby weather
Weather history
Weather forecast

Temperature8.9°C (48.0°F)
Wind chill6.6°C (43.9°F)
Dew point5.6°C (42.1°F)
Winds 8 kts (4.1 m/s, 9.2 mph) North-Northwest (330°)
Visibility10 mi. (16.1 km)
Clouds Few clouds 7,000 ft. (2,134 m)
Altimeter30.33 in.Hg (1027 mB)
Relative humidity80 %
Density altitude-1,066 ft. (-325 m)
Sea-level pressure102.7 kPa (1027 mB, 30.33 in.Hg)
Remarks Fully automated report
System requires maintenance
Automated weather observing station with precipitation discriminator
Present weather sensor not operating
Flight conditions Visual Meteorological Conditions
Raw dataKPWK 280752Z AUTO 33008KT 10SM FEW070 09/06 A3033 RMK AO2 SLP271 T00890056 PWINO $
An error has occurred. This application may no longer respond until reloaded. Reload 🗙